Time;durP1;ratioP1;P1;durP2;ratioP2;P2;SDS_P1;SDS_P2;PMS_P1;PMS_P2;Temp;Humidity;BMP_temperature;BMP_pressure;BME280_temperature;BME280_humidity;BME280_pressure;Samples;Min_cycle;Max_cycle;Signal;HPM_P1;HPM_P2
2023/03/05 00:01:21;;;;;;;5.82;4.47;;;18.80;47.20;;;;;;4997111;28;20192;-72
2023/03/05 00:06:16;;;;;;;4.78;4.32;;;18.90;47.30;;;;;;5052830;28;20222;-68
2023/03/05 00:08:42;;;;;;;4.90;4.00;;;18.90;47.30;;;;;;5055489;28;20660;-68
2023/03/05 00:11:10;;;;;;;4.13;3.83;;;18.90;47.20;;;;;;5070076;28;20186;-70
2023/03/05 00:13:37;;;;;;;5.55;4.85;;;18.80;47.20;;;;;;5057914;28;20219;-70
2023/03/05 00:16:11;;;;;;;5.38;4.50;;;18.90;47.20;;;;;;5042948;28;20186;-70
2023/03/05 00:18:37;;;;;;;4.65;4.13;;;18.90;47.20;;;;;;5070121;28;20186;-70
2023/03/05 00:21:16;;;;;;;5.35;4.47;;;18.90;47.20;;;;;;5054346;28;20182;-70
2023/03/05 00:23:41;;;;;;;5.28;4.55;;;18.90;47.20;;;;;;5050523;28;20294;-70
2023/03/05 00:26:07;;;;;;;5.28;4.28;;;18.90;47.20;;;;;;5033570;28;20217;-71
2023/03/05 00:28:33;;;;;;;4.65;3.80;;;18.90;47.20;;;;;;5033776;28;20210;-70
2023/03/05 00:31:00;;;;;;;4.68;4.07;;;18.90;47.20;;;;;;5040653;28;20186;-70
2023/03/05 00:33:26;;;;;;;4.50;4.03;;;18.80;47.20;;;;;;5053213;28;20742;-70
2023/03/05 00:35:52;;;;;;;4.50;3.97;;;18.80;47.20;;;;;;5052648;28;20181;-70
2023/03/05 00:38:18;;;;;;;5.15;4.10;;;18.90;47.20;;;;;;5036255;28;20187;-71
2023/03/05 00:40:44;;;;;;;4.72;3.63;;;18.90;47.20;;;;;;5053169;28;20197;-70
2023/03/05 00:43:10;;;;;;;4.85;4.30;;;18.80;47.20;;;;;;5044652;28;20206;-70
2023/03/05 00:45:36;;;;;;;4.55;4.07;;;18.90;47.30;;;;;;5033359;28;20286;-71
2023/03/05 00:48:03;;;;;;;4.72;3.95;;;18.90;47.30;;;;;;5032529;28;20186;-70
2023/03/05 00:50:29;;;;;;;4.55;3.85;;;18.80;47.20;;;;;;5036816;28;20265;-70
2023/03/05 00:52:55;;;;;;;4.25;3.85;;;18.90;47.20;;;;;;5036232;28;20222;-70
2023/03/05 00:55:21;;;;;;;4.30;3.95;;;18.80;47.20;;;;;;5052873;28;20174;-71
2023/03/05 00:57:46;;;;;;;4.68;4.22;;;18.80;47.20;;;;;;5036391;28;20185;-70
2023/03/05 01:00:14;;;;;;;4.20;3.65;;;18.90;47.30;;;;;;5036432;28;20289;-70
2023/03/05 01:02:40;;;;;;;4.43;4.03;;;18.80;47.20;;;;;;5052793;28;20232;-70
2023/03/05 01:05:06;;;;;;;6.13;4.45;;;18.80;47.20;;;;;;5035533;28;20200;-70
2023/03/05 01:07:32;;;;;;;5.30;4.10;;;18.80;47.20;;;;;;5035868;28;20256;-70
2023/03/05 01:09:59;;;;;;;4.93;4.10;;;18.80;47.20;;;;;;5053087;28;20630;-70
2023/03/05 01:12:24;;;;;;;4.47;4.03;;;18.90;47.20;;;;;;5035936;28;20210;-70
2023/03/05 01:14:50;;;;;;;4.50;4.05;;;18.80;47.20;;;;;;5052677;28;20193;-70
2023/03/05 01:17:16;;;;;;;4.97;4.22;;;18.80;47.20;;;;;;5035874;28;20174;-70
2023/03/05 01:19:42;;;;;;;5.47;4.20;;;18.80;47.20;;;;;;5036429;28;20189;-71
2023/03/05 01:22:08;;;;;;;4.03;3.60;;;18.80;47.10;;;;;;5052223;28;20209;-70
2023/03/05 01:24:34;;;;;;;4.50;4.10;;;18.80;47.20;;;;;;5031899;28;20183;-71
2023/03/05 01:26:59;;;;;;;4.90;4.20;;;18.80;47.20;;;;;;5031697;28;20191;-72
2023/03/05 01:29:26;;;;;;;4.43;3.90;;;18.80;47.20;;;;;;5031600;28;20202;-70
2023/03/05 01:31:51;;;;;;;4.40;3.97;;;18.80;47.20;;;;;;5015268;28;20206;-71
2023/03/05 01:34:17;;;;;;;4.20;3.70;;;18.80;47.20;;;;;;5031243;28;20592;-70
2023/03/05 01:36:43;;;;;;;4.20;3.80;;;18.80;47.20;;;;;;5031771;28;20657;-71
2023/03/05 01:39:09;;;;;;;4.40;4.00;;;18.80;47.20;;;;;;5031108;28;20187;-71
2023/03/05 01:41:35;;;;;;;4.75;4.10;;;18.80;47.20;;;;;;5034830;28;20273;-71
2023/03/05 01:44:01;;;;;;;4.20;3.80;;;18.80;47.20;;;;;;5034502;28;20214;-71
2023/03/05 01:46:35;;;;;;;4.63;3.97;;;18.80;47.20;;;;;;5034590;28;20688;-71
2023/03/05 01:49:17;;;;;;;5.05;4.28;;;18.80;47.20;;;;;;5031440;28;20214;-70
2023/03/05 01:52:10;;;;;;;5.25;4.40;;;18.80;47.20;;;;;;5027034;28;20182;-71
2023/03/05 01:54:44;;;;;;;5.35;4.07;;;18.80;47.20;;;;;;5034527;28;20206;-71
2023/03/05 01:57:17;;;;;;;4.78;4.28;;;18.80;47.20;;;;;;5034212;28;20216;-71
2023/03/05 01:59:49;;;;;;;3.80;3.50;;;18.80;47.80;;;;;;5043751;28;20182;-70
2023/03/05 02:02:17;;;;;;;4.40;3.50;;;18.80;47.20;;;;;;5031507;28;20725;-71
2023/03/05 02:04:50;;;;;;;4.55;3.90;;;18.80;47.20;;;;;;5050797;28;20198;-71
2023/03/05 02:07:17;;;;;;;4.45;3.80;;;18.80;47.20;;;;;;5034089;28;20576;-71
2023/03/05 02:09:43;;;;;;;4.15;3.72;;;18.80;47.20;;;;;;5034354;28;20189;-70
2023/03/05 02:12:11;;;;;;;4.05;3.60;;;18.80;47.20;;;;;;5034048;28;20201;-70
2023/03/05 02:14:40;;;;;;;4.65;4.20;;;18.80;47.20;;;;;;5034290;28;20221;-70
2023/03/05 02:17:08;;;;;;;4.45;4.05;;;18.80;47.10;;;;;;5033995;28;20250;-70
2023/03/05 02:20:23;;;;;;;5.20;4.20;;;18.80;47.20;;;;;;5034161;28;20182;-70
2023/03/05 02:22:49;;;;;;;4.95;4.03;;;18.80;47.20;;;;;;5034202;28;20202;-70
2023/03/05 02:25:24;;;;;;;4.72;4.13;;;18.80;47.20;;;;;;5033852;28;20190;-70
2023/03/05 02:28:31;;;;;;;4.43;3.97;;;18.80;47.20;;;;;;5050589;28;20188;-71
2023/03/05 02:30:58;;;;;;;4.47;4.05;;;18.80;47.20;;;;;;5047448;28;20205;-70
2023/03/05 02:33:24;;;;;;;4.47;3.80;;;18.80;47.20;;;;;;5033666;28;20716;-70
2023/03/05 02:35:51;;;;;;;5.20;4.40;;;18.90;47.20;;;;;;5042308;28;20183;-70
2023/03/05 02:38:20;;;;;;;4.13;3.70;;;18.90;47.20;;;;;;5033707;28;20186;-70
2023/03/05 02:40:46;;;;;;;4.50;3.83;;;18.80;47.20;;;;;;5030198;28;20183;-70
2023/03/05 02:43:13;;;;;;;4.85;4.35;;;18.90;47.20;;;;;;5038839;28;20202;-70
2023/03/05 02:45:39;;;;;;;4.72;4.32;;;18.80;47.20;;;;;;5014112;28;20244;-71
2023/03/05 02:48:06;;;;;;;5.05;4.28;;;18.80;47.80;;;;;;5028829;28;20224;-70
2023/03/05 02:50:34;;;;;;;4.93;4.25;;;18.90;47.20;;;;;;5050210;28;20561;-70
2023/03/05 02:53:00;;;;;;;4.35;3.65;;;18.80;47.10;;;;;;5044159;28;20309;-71
2023/03/05 02:55:26;;;;;;;5.00;4.15;;;18.90;47.20;;;;;;5038505;28;20183;-71
2023/03/05 02:57:52;;;;;;;4.18;3.75;;;18.90;47.20;;;;;;5014129;28;20187;-70
2023/03/05 03:00:18;;;;;;;3.92;3.22;;;18.90;47.20;;;;;;5030620;28;20183;-71
2023/03/05 03:02:44;;;;;;;5.20;4.10;;;18.80;47.10;;;;;;5041246;28;20207;-70
2023/03/05 03:05:10;;;;;;;4.10;3.67;;;18.90;47.30;;;;;;5018005;28;20229;-70
2023/03/05 03:07:35;;;;;;;3.97;3.63;;;18.90;47.20;;;;;;5017655;28;20191;-70
2023/03/05 03:10:05;;;;;;;4.22;3.83;;;18.90;47.20;;;;;;5034439;28;20179;-71
2023/03/05 03:12:36;;;;;;;4.95;3.63;;;18.90;47.20;;;;;;5034903;28;20207;-70
2023/03/05 03:15:02;;;;;;;4.30;3.53;;;18.90;47.20;;;;;;5041305;28;20207;-71
2023/03/05 03:17:28;;;;;;;4.65;3.70;;;18.90;47.20;;;;;;5050427;28;20218;-70
2023/03/05 03:19:53;;;;;;;3.97;3.58;;;18.90;47.20;;;;;;5025798;28;20194;-70
2023/03/05 03:22:19;;;;;;;5.20;3.83;;;18.90;47.20;;;;;;5026009;28;20210;-70
2023/03/05 03:24:45;;;;;;;4.85;4.22;;;18.90;47.20;;;;;;5034304;28;20190;-71
2023/03/05 03:27:11;;;;;;;5.03;3.72;;;18.90;47.20;;;;;;5042078;28;20187;-70
2023/03/05 03:29:37;;;;;;;4.78;4.28;;;18.90;47.20;;;;;;5042118;28;20191;-70
2023/03/05 03:32:03;;;;;;;4.15;3.75;;;18.90;47.20;;;;;;5042033;28;20190;-70
2023/03/05 03:34:29;;;;;;;4.45;3.83;;;18.90;47.20;;;;;;5050241;28;20215;-70
2023/03/05 03:36:55;;;;;;;4.63;4.07;;;18.90;47.20;;;;;;5017263;28;20188;-70
2023/03/05 03:39:22;;;;;;;5.10;4.18;;;18.90;47.20;;;;;;5034363;28;20190;-70
2023/03/05 03:41:51;;;;;;;5.32;4.07;;;18.90;47.20;;;;;;5049529;28;20258;-71
2023/03/05 03:44:19;;;;;;;5.57;4.43;;;18.90;47.20;;;;;;5041642;28;20190;-70
2023/03/05 03:46:46;;;;;;;4.65;3.92;;;18.90;47.20;;;;;;5053249;28;20186;-71
2023/03/05 03:49:24;;;;;;;4.50;4.00;;;18.90;47.20;;;;;;5028278;28;20213;-70
2023/03/05 03:51:56;;;;;;;4.57;4.05;;;18.90;47.20;;;;;;5033567;28;20309;-70
2023/03/05 03:54:23;;;;;;;5.50;3.90;;;18.90;47.30;;;;;;5031173;28;20316;-70
2023/03/05 03:56:49;;;;;;;3.92;3.50;;;18.90;47.40;;;;;;5053353;28;20537;-70
2023/03/05 03:59:15;;;;;;;4.75;4.15;;;18.90;47.20;;;;;;5045000;28;20240;-70
2023/03/05 04:01:42;;;;;;;4.88;4.07;;;18.90;47.20;;;;;;5032834;28;20257;-70
2023/03/05 04:04:10;;;;;;;4.50;3.78;;;18.90;47.20;;;;;;5033150;28;20218;-70
2023/03/05 04:06:36;;;;;;;3.95;3.53;;;18.90;47.20;;;;;;5043714;28;20191;-71
2023/03/05 04:09:03;;;;;;;3.80;3.45;;;18.90;47.30;;;;;;5045063;28;20191;-70
2023/03/05 04:11:29;;;;;;;4.28;3.88;;;19.00;47.30;;;;;;5027012;28;20194;-70
2023/03/05 04:13:55;;;;;;;4.63;3.63;;;18.90;47.20;;;;;;5025344;28;20645;-71
2023/03/05 04:16:21;;;;;;;4.32;3.92;;;19.00;47.30;;;;;;5032777;28;20579;-70
2023/03/05 04:18:47;;;;;;;4.68;3.95;;;19.00;47.30;;;;;;5024431;28;20183;-70
2023/03/05 04:21:13;;;;;;;6.15;4.18;;;18.90;47.20;;;;;;5041223;28;20247;-71
2023/03/05 04:23:39;;;;;;;5.95;4.25;;;19.00;47.30;;;;;;5040964;28;20207;-70
2023/03/05 04:26:05;;;;;;;4.80;4.30;;;19.00;47.30;;;;;;5024429;28;20191;-71
2023/03/05 04:28:32;;;;;;;5.15;3.97;;;19.00;47.30;;;;;;5034302;28;20313;-71
2023/03/05 04:30:58;;;;;;;4.28;3.45;;;18.90;47.20;;;;;;5036065;28;20236;-70
2023/03/05 04:33:24;;;;;;;4.20;3.70;;;19.00;47.30;;;;;;5027865;28;20215;-70
2023/03/05 04:35:51;;;;;;;3.92;3.53;;;19.00;47.30;;;;;;5048492;28;20191;-70
2023/03/05 04:38:17;;;;;;;4.20;3.78;;;18.90;47.20;;;;;;5040377;28;20187;-70
2023/03/05 04:40:44;;;;;;;4.13;3.83;;;19.00;47.30;;;;;;5043692;28;20233;-71
2023/03/05 04:43:10;;;;;;;3.67;3.38;;;19.00;47.30;;;;;;5053847;28;20228;-70
2023/03/05 04:45:40;;;;;;;4.57;4.13;;;19.00;47.30;;;;;;5025531;28;20190;-70
2023/03/05 04:48:07;;;;;;;4.10;3.45;;;19.00;47.30;;;;;;5040573;28;20191;-70
2023/03/05 04:50:33;;;;;;;4.05;3.65;;;19.00;47.30;;;;;;5032186;28;20545;-70
2023/03/05 04:53:00;;;;;;;4.85;3.70;;;19.00;47.30;;;;;;5043846;28;20700;-70
2023/03/05 04:55:26;;;;;;;3.80;3.50;;;19.00;47.90;;;;;;5043183;28;20187;-70
2023/03/05 04:57:52;;;;;;;4.03;3.58;;;19.00;47.30;;;;;;5032633;28;20182;-70
2023/03/05 05:00:18;;;;;;;4.82;3.83;;;19.00;47.30;;;;;;5040742;28;20195;-70
2023/03/05 05:02:48;;;;;;;4.63;3.65;;;19.00;47.30;;;;;;5043087;28;20230;-71
2023/03/05 05:05:18;;;;;;;3.90;3.53;;;19.00;47.30;;;;;;5043733;28;20565;-70
2023/03/05 05:07:44;;;;;;;5.63;3.92;;;19.00;47.30;;;;;;5027235;28;20201;-70
2023/03/05 05:10:12;;;;;;;4.57;4.18;;;19.00;47.30;;;;;;5052019;28;20190;-71
2023/03/05 05:12:38;;;;;;;4.93;4.40;;;19.00;47.30;;;;;;5035590;28;20222;-70
2023/03/05 05:15:06;;;;;;;4.97;4.25;;;19.00;47.30;;;;;;5038181;28;20183;-70
2023/03/05 05:17:33;;;;;;;4.38;3.97;;;19.00;47.30;;;;;;5033009;28;20179;-70
2023/03/05 05:20:00;;;;;;;4.53;3.83;;;19.00;47.30;;;;;;5027851;28;20677;-70
2023/03/05 05:22:28;;;;;;;4.55;3.78;;;19.00;47.30;;;;;;5047944;28;20221;-71
2023/03/05 05:24:54;;;;;;;4.35;3.78;;;19.00;47.30;;;;;;5022679;28;20190;-70
2023/03/05 05:27:21;;;;;;;4.05;3.65;;;19.00;47.30;;;;;;5031071;28;20240;-70
2023/03/05 05:29:49;;;;;;;3.78;3.28;;;19.00;47.30;;;;;;5043255;28;20190;-70
2023/03/05 05:32:21;;;;;;;4.00;3.25;;;19.00;47.30;;;;;;5019856;28;20207;-70
2023/03/05 05:34:47;;;;;;;3.88;3.35;;;19.00;47.30;;;;;;5042805;28;20206;-70
2023/03/05 05:37:13;;;;;;;4.13;3.58;;;19.00;47.30;;;;;;5034672;28;20187;-70
2023/03/05 05:39:39;;;;;;;4.30;3.90;;;19.00;47.30;;;;;;5035127;28;20195;-70
2023/03/05 05:42:06;;;;;;;4.25;3.60;;;19.00;47.30;;;;;;5045976;28;20341;-70
2023/03/05 05:44:33;;;;;;;4.15;3.72;;;19.00;47.30;;;;;;5040613;28;20195;-71
2023/03/05 05:46:59;;;;;;;3.63;3.33;;;19.00;47.30;;;;;;5021776;28;20189;-70
2023/03/05 05:49:25;;;;;;;4.60;3.60;;;19.00;47.30;;;;;;5039758;28;20270;-70
2023/03/05 05:51:51;;;;;;;4.07;3.67;;;19.00;47.30;;;;;;5018508;28;20225;-71
2023/03/05 05:54:17;;;;;;;4.50;4.10;;;19.00;47.30;;;;;;5031107;28;20270;-70
2023/03/05 05:56:42;;;;;;;4.22;3.70;;;19.00;47.30;;;;;;5038233;28;20189;-71
2023/03/05 05:59:10;;;;;;;5.82;4.45;;;19.00;47.30;;;;;;5045271;28;20183;-71
2023/03/05 06:01:35;;;;;;;4.13;3.70;;;19.00;47.30;;;;;;5030533;28;20191;-70
2023/03/05 06:04:02;;;;;;;4.93;4.43;;;19.10;47.40;;;;;;5080377;22;20226;-72
2023/03/05 06:06:28;;;;;;;4.45;4.05;;;19.00;47.30;;;;;;5050750;28;20189;-71
2023/03/05 06:08:54;;;;;;;4.95;4.05;;;19.10;47.40;;;;;;5051389;28;20166;-71
2023/03/05 06:11:21;;;;;;;4.88;4.25;;;19.10;47.40;;;;;;5027683;28;20603;-72
2023/03/05 06:13:48;;;;;;;4.57;4.03;;;19.00;47.30;;;;;;5039409;28;20227;-71
2023/03/05 06:16:19;;;;;;;4.03;3.67;;;19.00;47.30;;;;;;5022997;28;20202;-72
2023/03/05 06:18:45;;;;;;;4.60;3.67;;;19.00;47.30;;;;;;5031160;28;20186;-71
2023/03/05 06:21:15;;;;;;;4.07;3.67;;;19.00;47.30;;;;;;5037482;28;20178;-72
2023/03/05 06:23:42;;;;;;;4.30;3.75;;;19.00;47.30;;;;;;5032754;28;20297;-71
2023/03/05 06:26:12;;;;;;;3.95;3.55;;;19.00;47.30;;;;;;5039482;28;20722;-72
2023/03/05 06:28:39;;;;;;;3.75;3.40;;;19.00;47.30;;;;;;5012702;28;20183;-71
2023/03/05 06:31:09;;;;;;;4.03;3.72;;;19.00;47.40;;;;;;5019758;28;20182;-72
2023/03/05 06:33:36;;;;;;;4.20;3.80;;;19.00;47.40;;;;;;5034195;28;20219;-72
2023/03/05 06:36:08;;;;;;;4.03;3.58;;;19.00;47.40;;;;;;5051599;28;20248;-71
2023/03/05 06:38:34;;;;;;;4.50;3.85;;;19.00;47.40;;;;;;5025907;28;20186;-71
2023/03/05 06:41:10;;;;;;;3.83;3.50;;;19.00;47.40;;;;;;5039383;28;20233;-71
2023/03/05 06:43:39;;;;;;;4.13;3.72;;;19.10;47.50;;;;;;5048365;28;20214;-72
2023/03/05 06:46:11;;;;;;;5.07;4.00;;;19.10;47.50;;;;;;5046900;28;20274;-71
2023/03/05 06:48:37;;;;;;;4.20;3.80;;;19.00;47.40;;;;;;5023493;28;20218;-72
2023/03/05 06:51:03;;;;;;;4.10;3.70;;;19.00;47.30;;;;;;5050809;28;20206;-71
2023/03/05 06:53:29;;;;;;;4.25;3.85;;;19.10;47.50;;;;;;5025921;28;20215;-72
2023/03/05 06:55:55;;;;;;;4.53;4.13;;;19.00;47.40;;;;;;5030840;28;20190;-71
2023/03/05 06:58:22;;;;;;;4.28;3.70;;;19.00;47.40;;;;;;5062995;28;20186;-71
2023/03/05 07:00:48;;;;;;;4.38;3.42;;;19.00;47.40;;;;;;5041186;28;20270;-72
2023/03/05 07:03:13;;;;;;;3.80;3.50;;;19.00;47.40;;;;;;5028542;28;20304;-72
2023/03/05 07:05:41;;;;;;;4.93;3.75;;;19.00;47.40;;;;;;5017478;28;20202;-71
2023/03/05 07:08:08;;;;;;;4.43;3.70;;;19.00;47.40;;;;;;5034245;28;20186;-71
2023/03/05 07:10:40;;;;;;;4.65;3.63;;;19.10;47.60;;;;;;5042381;28;20186;-71
2023/03/05 07:13:07;;;;;;;3.95;3.55;;;19.10;47.50;;;;;;5038855;28;20218;-71
2023/03/05 07:15:36;;;;;;;4.45;3.63;;;19.10;47.60;;;;;;5036688;28;20203;-71
2023/03/05 07:18:01;;;;;;;4.03;3.63;;;19.10;48.20;;;;;;5030111;28;20217;-71
2023/03/05 07:20:28;;;;;;;3.63;3.33;;;19.10;47.50;;;;;;5033851;28;20187;-71
2023/03/05 07:22:54;;;;;;;5.18;3.80;;;19.10;47.50;;;;;;5050002;28;20210;-71
2023/03/05 07:25:20;;;;;;;4.35;3.95;;;19.10;47.60;;;;;;5032618;28;20254;-71
2023/03/05 07:27:47;;;;;;;4.28;3.70;;;19.10;47.50;;;;;;5024540;28;20283;-71
2023/03/05 07:30:14;;;;;;;4.50;4.10;;;19.10;47.50;;;;;;5044683;28;20194;-72
2023/03/05 07:32:40;;;;;;;4.57;4.18;;;19.10;47.50;;;;;;5031542;28;20218;-71
2023/03/05 07:35:06;;;;;;;5.32;3.95;;;19.10;47.50;;;;;;5034118;28;20182;-71
2023/03/05 07:37:33;;;;;;;4.93;4.00;;;19.10;47.50;;;;;;5030837;28;20185;-71
2023/03/05 07:39:59;;;;;;;5.35;4.63;;;19.10;47.50;;;;;;5027263;28;20216;-71
2023/03/05 07:42:25;;;;;;;4.78;4.10;;;19.10;47.50;;;;;;5037554;28;20674;-71
2023/03/05 07:45:06;;;;;;;3.80;3.42;;;19.10;47.50;;;;;;5026117;28;20191;-72
2023/03/05 07:47:32;;;;;;;4.22;3.83;;;19.10;47.50;;;;;;5046509;28;20187;-71
2023/03/05 07:49:58;;;;;;;4.25;3.85;;;19.10;47.60;;;;;;5053377;28;20208;-71
2023/03/05 07:52:23;;;;;;;4.07;3.55;;;19.10;47.60;;;;;;5030171;28;20199;-71
2023/03/05 07:54:49;;;;;;;4.45;3.90;;;19.10;47.60;;;;;;5036094;28;20210;-71
2023/03/05 07:57:15;;;;;;;3.60;3.30;;;19.10;47.60;;;;;;5054984;28;20194;-71
2023/03/05 07:59:41;;;;;;;4.22;3.83;;;19.10;47.60;;;;;;5021066;28;20175;-72
2023/03/05 08:02:11;;;;;;;4.38;3.58;;;19.10;47.60;;;;;;5037076;28;20185;-71
2023/03/05 08:04:37;;;;;;;4.30;3.83;;;19.10;47.60;;;;;;5037176;28;20269;-72
2023/03/05 08:07:04;;;;;;;4.25;3.58;;;19.10;47.60;;;;;;5053666;28;20187;-71
2023/03/05 08:09:29;;;;;;;4.68;4.18;;;19.10;47.60;;;;;;5053726;28;20264;-71
2023/03/05 08:11:56;;;;;;;4.70;4.25;;;19.20;47.70;;;;;;5042316;28;20219;-71
2023/03/05 08:14:22;;;;;;;4.50;4.10;;;19.20;47.70;;;;;;5013736;28;20295;-72
2023/03/05 08:16:51;;;;;;;4.68;4.18;;;19.10;47.60;;;;;;5033946;28;20198;-71
2023/03/05 08:19:20;;;;;;;5.03;4.53;;;19.20;47.70;;;;;;5054575;28;20182;-71
2023/03/05 08:21:46;;;;;;;4.95;4.45;;;19.10;47.60;;;;;;5036964;28;20175;-72
2023/03/05 08:24:12;;;;;;;5.75;4.80;;;19.20;47.80;;;;;;5036743;28;20205;-72
2023/03/05 08:26:39;;;;;;;4.53;3.95;;;19.20;47.70;;;;;;5044832;28;20226;-72
2023/03/05 08:29:07;;;;;;;4.57;3.85;;;19.20;47.70;;;;;;5045872;28;20214;-72
2023/03/05 08:31:34;;;;;;;4.40;4.00;;;19.20;47.70;;;;;;5028526;28;20191;-72
2023/03/05 08:34:01;;;;;;;4.05;3.58;;;19.10;47.60;;;;;;5020172;28;20210;-72
2023/03/05 08:36:28;;;;;;;4.55;3.65;;;19.20;47.70;;;;;;5025969;28;20215;-72
2023/03/05 08:38:54;;;;;;;3.97;3.58;;;19.20;47.70;;;;;;5035508;28;20206;-72
2023/03/05 08:41:21;;;;;;;4.20;3.80;;;19.20;47.70;;;;;;5039772;28;20253;-72
2023/03/05 08:43:47;;;;;;;3.42;3.13;;;19.20;47.70;;;;;;5052179;28;20361;-72
2023/03/05 08:46:14;;;;;;;3.90;3.40;;;19.20;47.80;;;;;;5030138;28;20187;-72
2023/03/05 08:48:41;;;;;;;4.20;3.80;;;19.10;47.70;;;;;;5029911;28;20191;-72
2023/03/05 08:51:11;;;;;;;4.90;4.03;;;19.20;47.70;;;;;;5020957;28;20242;-72
2023/03/05 08:53:37;;;;;;;4.00;3.60;;;19.20;47.80;;;;;;5045888;28;20214;-72
2023/03/05 08:56:03;;;;;;;4.18;3.78;;;19.20;47.80;;;;;;5028093;28;20177;-72
2023/03/05 08:58:29;;;;;;;4.85;4.03;;;19.20;47.70;;;;;;5036335;28;20186;-72
2023/03/05 09:00:55;;;;;;;4.88;3.70;;;19.20;47.80;;;;;;5043475;28;20238;-72
2023/03/05 09:03:21;;;;;;;4.10;3.70;;;19.20;47.80;;;;;;5044395;28;20310;-71
2023/03/05 09:05:47;;;;;;;4.10;3.70;;;19.20;47.80;;;;;;5024213;28;20210;-74
2023/03/05 09:08:13;;;;;;;4.60;3.80;;;19.20;47.80;;;;;;5030980;28;20184;-72
2023/03/05 09:10:41;;;;;;;4.75;4.00;;;19.20;47.80;;;;;;5040791;28;20187;-72
2023/03/05 09:13:08;;;;;;;4.40;3.95;;;19.20;47.80;;;;;;5036533;28;20256;-72
2023/03/05 09:15:34;;;;;;;4.30;3.90;;;19.20;47.80;;;;;;5035982;28;20228;-72
2023/03/05 09:18:00;;;;;;;4.22;3.63;;;19.20;47.80;;;;;;5052703;28;20197;-72
2023/03/05 09:20:26;;;;;;;4.15;3.55;;;19.20;47.80;;;;;;5037517;28;20274;-72
2023/03/05 09:22:52;;;;;;;4.60;4.13;;;19.20;47.80;;;;;;5023362;28;20210;-71
2023/03/05 09:25:17;;;;;;;3.78;3.45;;;19.20;47.80;;;;;;5044063;28;20278;-72
2023/03/05 09:27:44;;;;;;;4.75;3.72;;;19.30;47.80;;;;;;5031570;28;20183;-72
2023/03/05 09:30:12;;;;;;;4.25;3.85;;;19.20;47.80;;;;;;5020172;28;20232;-72
2023/03/05 09:32:38;;;;;;;3.70;3.40;;;19.20;47.80;;;;;;5030652;28;20235;-72
2023/03/05 09:35:05;;;;;;;3.80;3.50;;;19.20;47.80;;;;;;5032134;28;20260;-72
2023/03/05 09:37:31;;;;;;;3.80;3.20;;;19.20;47.80;;;;;;5033892;28;20186;-72
2023/03/05 09:39:57;;;;;;;5.40;3.70;;;19.20;47.80;;;;;;5015966;28;20191;-72
2023/03/05 09:42:52;;;;;;;4.00;3.15;;;19.20;47.80;;;;;;5015042;28;20225;-72
2023/03/05 09:45:38;;;;;;;3.50;3.20;;;19.20;47.90;;;;;;5015373;28;20191;-72
2023/03/05 09:48:49;;;;;;;4.80;3.63;;;19.30;47.90;;;;;;5035420;28;20182;-71
2023/03/05 09:51:26;;;;;;;5.20;3.38;;;19.20;47.80;;;;;;5012838;28;20205;-71
2023/03/05 09:54:14;;;;;;;5.05;3.40;;;19.20;47.80;;;;;;5017170;28;20199;-72
2023/03/05 09:56:47;;;;;;;3.67;3.38;;;19.30;47.90;;;;;;5029640;28;20568;-72
2023/03/05 09:59:29;;;;;;;3.72;3.42;;;19.20;47.80;;;;;;5015450;28;20207;-71
2023/03/05 10:02:15;;;;;;;3.58;3.28;;;19.30;47.90;;;;;;5030772;28;20233;-71
2023/03/05 10:05:03;;;;;;;4.15;3.75;;;19.30;47.90;;;;;;5013905;28;20196;-71
2023/03/05 10:07:35;;;;;;;3.90;3.17;;;19.30;47.90;;;;;;5012421;28;20187;-71
2023/03/05 10:10:24;;;;;;;4.03;3.50;;;19.30;47.90;;;;;;5034531;28;20203;-71
2023/03/05 10:12:58;;;;;;;4.15;3.38;;;19.30;47.90;;;;;;5016551;28;20313;-71
2023/03/05 10:15:38;;;;;;;3.47;3.17;;;19.30;47.80;;;;;;5027754;28;20241;-71
2023/03/05 10:18:37;;;;;;;3.90;3.50;;;19.30;47.90;;;;;;5013947;28;20197;-72
2023/03/05 10:21:17;;;;;;;4.68;4.05;;;19.30;47.90;;;;;;5013573;28;20281;-71
2023/03/05 10:24:17;;;;;;;4.38;3.38;;;19.30;47.80;;;;;;5014226;28;20218;-71
2023/03/05 10:27:07;;;;;;;4.13;3.50;;;19.30;47.80;;;;;;5013104;28;20183;-71
2023/03/05 10:29:49;;;;;;;4.43;3.10;;;19.30;47.80;;;;;;5028649;28;20191;-71
2023/03/05 10:33:06;;;;;;;3.70;3.40;;;19.30;47.90;;;;;;5014020;28;20187;-71
2023/03/05 10:36:15;;;;;;;3.72;3.42;;;19.30;47.80;;;;;;5032301;28;20199;-71
2023/03/05 10:39:05;;;;;;;4.28;3.25;;;19.30;48.40;;;;;;5033693;28;20191;-71
2023/03/05 10:42:05;;;;;;;3.83;3.25;;;19.30;47.80;;;;;;5014398;28;20198;-71
2023/03/05 10:44:59;;;;;;;4.00;3.20;;;19.30;47.80;;;;;;5030598;28;20245;-72
2023/03/05 10:47:47;;;;;;;3.58;3.00;;;19.30;47.80;;;;;;5007345;28;20202;-71
2023/03/05 10:50:45;;;;;;;3.25;2.95;;;19.30;47.80;;;;;;5033460;28;20197;-71
2023/03/05 10:53:34;;;;;;;3.65;3.30;;;19.30;47.80;;;;;;5009445;28;20296;-71
2023/03/05 10:56:05;;;;;;;5.05;4.18;;;19.30;47.80;;;;;;5019725;28;20277;-71
2023/03/05 10:58:32;;;;;;;3.35;3.05;;;19.30;47.80;;;;;;5013827;28;20250;-71
2023/03/05 11:01:08;;;;;;;3.85;3.47;;;19.30;47.80;;;;;;5012496;28;20195;-71
2023/03/05 11:04:02;;;;;;;3.33;3.03;;;19.30;47.80;;;;;;5014878;28;20223;-72
2023/03/05 11:06:34;;;;;;;3.30;3.00;;;19.40;47.80;;;;;;5032331;28;20274;-72
2023/03/05 11:09:30;;;;;;;3.03;2.70;;;19.30;47.80;;;;;;5018087;28;20221;-72
2023/03/05 11:12:19;;;;;;;3.63;3.17;;;19.30;47.80;;;;;;5033347;28;20243;-71
2023/03/05 11:15:12;;;;;;;3.20;2.90;;;19.30;47.80;;;;;;5012782;28;20207;-71
2023/03/05 11:17:46;;;;;;;3.60;3.30;;;19.30;47.90;;;;;;5017269;28;20286;-72
2023/03/05 11:20:30;;;;;;;4.05;2.90;;;19.30;47.80;;;;;;5011395;28;20273;-71
2023/03/05 11:23:13;;;;;;;3.08;2.78;;;19.30;47.80;;;;;;5022441;28;20219;-71
2023/03/05 11:26:11;;;;;;;4.38;3.50;;;19.40;48.00;;;;;;5016930;28;20187;-72
2023/03/05 11:29:02;;;;;;;3.55;3.25;;;19.30;47.90;;;;;;5020977;28;20218;-72
2023/03/05 11:31:32;;;;;;;3.83;3.28;;;19.30;47.80;;;;;;5018646;28;20191;-72
2023/03/05 11:34:07;;;;;;;4.53;3.28;;;19.40;48.00;;;;;;5019223;28;20593;-71
2023/03/05 11:36:35;;;;;;;3.72;3.28;;;19.30;47.80;;;;;;5022542;28;20273;-71
2023/03/05 11:39:13;;;;;;;3.10;2.83;;;19.30;48.40;;;;;;5021266;28;20186;-71
2023/03/05 11:42:02;;;;;;;4.18;3.30;;;19.30;47.80;;;;;;5020592;28;20275;-72
2023/03/05 11:44:33;;;;;;;3.40;2.95;;;19.30;47.90;;;;;;5018945;28;20184;-73
2023/03/05 11:47:29;;;;;;;4.20;3.58;;;19.30;47.90;;;;;;5020994;28;20565;-72
2023/03/05 11:50:11;;;;;;;3.58;3.20;;;19.40;48.00;;;;;;5021031;28;20188;-71
2023/03/05 11:53:02;;;;;;;3.33;3.03;;;19.40;48.00;;;;;;5016174;28;20277;-72
2023/03/05 11:55:56;;;;;;;3.17;2.88;;;19.30;47.90;;;;;;5018991;28;20208;-70
2023/03/05 11:58:40;;;;;;;3.22;2.78;;;19.40;48.00;;;;;;5020400;28;20724;-73
2023/03/05 12:01:24;;;;;;;5.38;3.20;;;19.30;47.80;;;;;;5039542;28;20184;-72
2023/03/05 12:03:52;;;;;;;3.40;3.10;;;19.30;47.80;;;;;;5025195;22;20322;-68
2023/03/05 12:06:44;;;;;;;3.38;3.08;;;19.30;47.80;;;;;;5024295;28;20192;-68
2023/03/05 12:09:41;;;;;;;3.28;2.80;;;19.40;47.90;;;;;;5025882;28;20200;-67
2023/03/05 12:12:38;;;;;;;4.32;2.83;;;19.40;47.80;;;;;;4987642;28;20184;-68
2023/03/05 12:15:24;;;;;;;3.90;3.35;;;19.40;47.90;;;;;;4990528;28;20216;-68
2023/03/05 12:18:19;;;;;;;3.65;3.30;;;19.50;47.90;;;;;;4988308;28;20190;-68
2023/03/05 12:21:22;;;;;;;3.50;2.72;;;19.50;47.90;;;;;;4994873;28;20566;-67
2023/03/05 12:24:02;;;;;;;3.45;3.15;;;19.50;47.90;;;;;;4984168;28;20263;-68
2023/03/05 12:27:02;;;;;;;3.88;2.65;;;19.40;47.80;;;;;;4987088;28;20280;-68
2023/03/05 12:29:49;;;;;;;4.15;3.30;;;19.40;47.80;;;;;;4974058;28;20181;-68
2023/03/05 12:32:21;;;;;;;5.57;2.80;;;19.40;47.80;;;;;;4969885;28;20248;-68
2023/03/05 12:35:28;;;;;;;5.55;2.70;;;19.40;47.80;;;;;;4984277;28;20281;-68
2023/03/05 12:37:53;;;;;;;2.83;2.63;;;19.40;47.70;;;;;;4964516;28;20205;-68
2023/03/05 12:40:27;;;;;;;3.08;2.78;;;19.40;47.80;;;;;;4982138;28;20228;-68
2023/03/05 12:43:04;;;;;;;3.10;2.80;;;19.40;47.70;;;;;;4973998;28;20209;-68
2023/03/05 12:45:34;;;;;;;3.38;2.78;;;19.40;47.70;;;;;;4966715;28;20198;-68
2023/03/05 12:47:59;;;;;;;4.57;3.25;;;19.50;47.80;;;;;;4990377;28;20181;-68
2023/03/05 12:50:25;;;;;;;3.22;2.83;;;19.40;47.70;;;;;;4974528;28;20190;-68
2023/03/05 12:53:12;;;;;;;3.17;2.88;;;19.40;47.70;;;;;;4969525;28;20801;-69
2023/03/05 12:55:55;;;;;;;3.67;2.65;;;19.50;47.80;;;;;;5006383;28;20186;-68
2023/03/05 12:58:40;;;;;;;2.70;2.38;;;19.40;47.60;;;;;;4982715;28;20185;-68
2023/03/05 13:01:44;;;;;;;3.90;2.55;;;19.50;47.70;;;;;;4985763;28;20216;-68
2023/03/05 13:04:23;;;;;;;3.05;2.70;;;19.40;47.70;;;;;;4973911;28;20225;-68
2023/03/05 13:07:03;;;;;;;3.20;2.47;;;19.50;47.80;;;;;;4986214;28;20201;-69
2023/03/05 13:09:35;;;;;;;2.85;2.58;;;19.40;47.70;;;;;;4979596;28;20196;-67
2023/03/05 13:12:09;;;;;;;2.78;2.58;;;19.40;47.70;;;;;;4974595;28;20683;-68
2023/03/05 13:14:47;;;;;;;2.60;2.40;;;19.50;47.80;;;;;;4966972;28;20271;-68